createdAt,value
2023-04-26T00:00:15.829Z,10.64
2023-04-26T00:01:15.827Z,10.69
2023-04-26T00:02:15.981Z,10.86
2023-04-26T00:03:16.082Z,10.95
2023-04-26T00:04:16.133Z,10.96
2023-04-26T00:05:16.166Z,10.96
2023-04-26T00:06:16.017Z,11.05
2023-04-26T00:07:16.049Z,10.89
2023-04-26T00:08:16.012Z,10.76
2023-04-26T00:09:16.028Z,10.83
2023-04-26T00:10:16.048Z,10.76
2023-04-26T00:11:16.123Z,10.61
2023-04-26T00:12:16.130Z,10.49
2023-04-26T00:13:16.768Z,10.35
2023-04-26T00:14:16.129Z,10.34
2023-04-26T00:15:16.131Z,10.20
2023-04-26T00:16:16.188Z,10.54
2023-04-26T00:17:16.193Z,10.41
2023-04-26T00:18:16.312Z,10.58
2023-04-26T00:19:16.265Z,10.55
2023-04-26T00:20:16.301Z,10.23
2023-04-26T00:21:16.277Z,10.47
2023-04-26T00:22:16.283Z,10.45
2023-04-26T00:23:16.282Z,10.75
2023-04-26T00:24:16.416Z,10.75
2023-04-26T00:25:16.392Z,10.86
2023-04-26T00:26:16.453Z,11.10
2023-04-26T00:27:16.460Z,11.20
2023-04-26T00:28:16.516Z,11.10
2023-04-26T00:29:17.271Z,11.02
2023-04-26T00:30:16.634Z,11.30
2023-04-26T00:31:16.688Z,11.36
2023-04-26T00:32:16.708Z,11.47
2023-04-26T00:33:16.783Z,11.61
2023-04-26T00:34:16.807Z,11.26
2023-04-26T00:35:16.840Z,11.41
2023-04-26T00:36:16.894Z,11.51
2023-04-26T00:37:16.917Z,11.57
2023-04-26T00:38:16.902Z,11.71
2023-04-26T00:39:17.259Z,11.78
2023-04-26T00:40:17.026Z,11.66
2023-04-26T00:41:17.100Z,11.80
2023-04-26T00:42:17.170Z,11.89
2023-04-26T00:43:17.203Z,11.95
2023-04-26T00:44:17.187Z,11.66
2023-04-26T00:45:17.193Z,11.58
2023-04-26T00:46:17.520Z,11.71
2023-04-26T00:47:17.305Z,11.37
2023-04-26T00:48:17.327Z,11.37
2023-04-26T00:49:17.337Z,11.56
2023-04-26T00:50:17.350Z,11.73
2023-04-26T00:51:17.376Z,11.58
2023-04-26T00:52:17.387Z,11.77
2023-04-26T00:53:17.458Z,11.81
2023-04-26T00:54:17.539Z,11.88
2023-04-26T00:55:17.617Z,11.77
2023-04-26T00:56:17.563Z,11.85
2023-04-26T00:57:17.595Z,11.81
2023-04-26T00:58:17.600Z,11.77
2023-04-26T00:59:17.673Z,11.76
2023-04-26T01:00:17.737Z,11.91
2023-04-26T01:01:17.729Z,12.02
2023-04-26T01:02:17.779Z,11.77
2023-04-26T01:03:17.830Z,11.54
2023-04-26T01:04:18.086Z,11.36
2023-04-26T01:05:17.749Z,11.43
2023-04-26T01:06:17.837Z,11.66
2023-04-26T01:07:17.830Z,11.70
2023-04-26T01:08:17.848Z,11.71
2023-04-26T01:09:17.924Z,11.78
2023-04-26T01:10:17.927Z,11.78
2023-04-26T01:11:18.004Z,11.63
2023-04-26T01:12:18.024Z,11.53
2023-04-26T01:13:18.099Z,11.76
2023-04-26T01:14:18.165Z,11.53
2023-04-26T01:15:18.180Z,11.77
2023-04-26T01:16:18.238Z,11.76
2023-04-26T01:17:18.226Z,11.48
2023-04-26T01:18:18.285Z,11.23
2023-04-26T01:19:18.315Z,10.98
2023-04-26T01:20:18.280Z,10.74
2023-04-26T01:21:18.285Z,10.52
2023-04-26T01:22:18.355Z,10.43
2023-04-26T01:23:18.433Z,10.49
2023-04-26T01:24:18.472Z,10.24
2023-04-26T01:25:18.535Z,10.14
2023-04-26T01:26:18.588Z,10.05
2023-04-26T01:27:18.562Z,10.17
2023-04-26T01:28:18.641Z,10.25
2023-04-26T01:29:18.742Z,10.44
2023-04-26T01:30:18.711Z,10.61
2023-04-26T01:31:18.778Z,10.82
2023-04-26T01:32:19.733Z,10.86
2023-04-26T01:33:18.814Z,10.99
2023-04-26T01:34:18.844Z,10.83
2023-04-26T01:35:18.815Z,10.85
2023-04-26T01:36:18.827Z,10.91
2023-04-26T01:37:18.854Z,10.85
2023-04-26T01:38:18.853Z,10.66
2023-04-26T01:39:18.929Z,10.83
2023-04-26T01:40:19.060Z,10.91
2023-04-26T01:41:18.962Z,11.00
2023-04-26T01:42:18.960Z,10.75
2023-04-26T01:43:18.959Z,10.87
2023-04-26T01:44:19.036Z,10.71
2023-04-26T01:45:19.096Z,10.75
2023-04-26T01:46:19.103Z,10.87
2023-04-26T01:47:19.035Z,10.95
2023-04-26T01:48:19.105Z,10.72
2023-04-26T01:49:19.183Z,10.89
2023-04-26T01:50:19.192Z,10.96
2023-04-26T01:51:19.160Z,10.80
2023-04-26T01:52:19.179Z,10.79
2023-04-26T01:53:19.184Z,10.71
2023-04-26T01:54:19.216Z,10.74
2023-04-26T01:55:19.243Z,10.78
2023-04-26T01:56:19.260Z,10.71
2023-04-26T01:57:19.268Z,10.86
2023-04-26T01:58:19.238Z,10.98
2023-04-26T01:59:19.372Z,11.02
2023-04-26T02:00:19.334Z,10.78
2023-04-26T02:01:19.375Z,10.66
2023-04-26T02:02:19.406Z,10.66
2023-04-26T02:03:19.485Z,10.51
2023-04-26T02:04:19.408Z,10.41
2023-04-26T02:05:19.592Z,10.40
2023-04-26T02:06:19.473Z,10.30
2023-04-26T02:07:19.514Z,10.21
2023-04-26T02:08:19.535Z,10.08
2023-04-26T02:09:19.559Z,9.94
2023-04-26T02:10:19.622Z,10.04
2023-04-26T02:11:19.690Z,10.04
2023-04-26T02:12:19.703Z,10.05
2023-04-26T02:13:19.767Z,10.24
2023-04-26T02:14:19.892Z,10.24
2023-04-26T02:15:19.891Z,10.14
2023-04-26T02:16:19.916Z,10.23
2023-04-26T02:17:19.892Z,10.27
2023-04-26T02:18:20.000Z,10.41
2023-04-26T02:19:20.254Z,10.40
2023-04-26T02:20:20.017Z,10.27
2023-04-26T02:21:20.028Z,10.59
2023-04-26T02:22:20.072Z,10.64
2023-04-26T02:23:20.125Z,10.74
2023-04-26T02:24:20.074Z,10.78
2023-04-26T02:25:20.152Z,10.74
2023-04-26T02:26:20.162Z,10.61
2023-04-26T02:27:20.182Z,10.65
2023-04-26T02:28:20.223Z,10.71
2023-04-26T02:29:29.393Z,10.58
2023-04-26T02:30:21.316Z,10.52
2023-04-26T02:31:22.747Z,10.65
2023-04-26T02:32:20.274Z,10.76
2023-04-26T02:33:20.237Z,10.87
2023-04-26T02:34:20.257Z,10.68
2023-04-26T02:35:20.270Z,10.85
2023-04-26T02:36:20.213Z,10.86
2023-04-26T02:37:20.243Z,10.93
2023-04-26T02:38:20.236Z,10.85
2023-04-26T02:39:20.221Z,10.82
2023-04-26T02:40:20.255Z,11.02
2023-04-26T02:41:20.237Z,11.10
2023-04-26T02:42:20.204Z,11.06
2023-04-26T02:43:20.184Z,10.85
2023-04-26T02:44:20.262Z,10.92
2023-04-26T02:45:20.214Z,10.75
2023-04-26T02:46:20.203Z,10.82
2023-04-26T02:47:20.191Z,10.66
2023-04-26T02:48:20.155Z,10.78
2023-04-26T02:49:20.181Z,11.02
2023-04-26T02:50:20.212Z,11.07
2023-04-26T02:51:20.170Z,11.03
2023-04-26T02:52:20.134Z,10.98
2023-04-26T02:53:20.149Z,10.93
2023-04-26T02:54:20.133Z,10.86
2023-04-26T02:55:20.129Z,10.87
2023-04-26T02:56:20.103Z,10.93
2023-04-26T02:57:20.096Z,11.10
2023-04-26T02:58:20.096Z,10.82
2023-04-26T02:59:20.099Z,10.69
2023-04-26T03:00:20.102Z,10.95
2023-04-26T03:01:20.067Z,10.52
2023-04-26T03:02:20.129Z,10.45
2023-04-26T03:03:20.430Z,10.64
2023-04-26T03:04:20.155Z,10.59
2023-04-26T03:05:20.289Z,10.71
2023-04-26T03:06:20.035Z,10.61
2023-04-26T03:07:20.068Z,10.34
2023-04-26T03:08:20.018Z,10.45
2023-04-26T03:09:20.278Z,10.10
2023-04-26T03:10:20.003Z,10.18
2023-04-26T03:11:20.010Z,10.20
2023-04-26T03:12:19.990Z,10.49
2023-04-26T03:13:20.027Z,10.54
2023-04-26T03:14:20.028Z,10.64
2023-04-26T03:15:19.998Z,10.49
2023-04-26T03:16:20.002Z,10.66
2023-04-26T03:17:19.973Z,10.31
2023-04-26T03:18:19.982Z,10.40
2023-04-26T03:19:20.030Z,10.27
2023-04-26T03:20:19.936Z,10.37
2023-04-26T03:21:19.924Z,10.15
2023-04-26T03:22:19.925Z,10.11
2023-04-26T03:23:19.907Z,10.04
2023-04-26T03:24:19.915Z,10.20
2023-04-26T03:25:19.930Z,10.17
2023-04-26T03:26:19.920Z,10.15
2023-04-26T03:27:19.863Z,10.23
2023-04-26T03:28:19.934Z,10.28
2023-04-26T03:29:19.903Z,10.28
2023-04-26T03:30:19.862Z,10.27
2023-04-26T03:31:19.922Z,10.24
2023-04-26T03:32:19.958Z,10.35
2023-04-26T03:33:20.030Z,10.61
2023-04-26T03:34:19.993Z,10.68
2023-04-26T03:35:19.977Z,10.79
2023-04-26T03:36:20.034Z,10.93
2023-04-26T03:37:20.144Z,10.99
2023-04-26T03:38:20.206Z,10.91
2023-04-26T03:39:20.237Z,10.82
2023-04-26T03:40:20.315Z,10.86
2023-04-26T03:41:20.383Z,10.82
2023-04-26T03:42:20.347Z,10.87
2023-04-26T03:43:20.362Z,10.71
2023-04-26T03:44:20.411Z,10.86
2023-04-26T03:45:20.453Z,10.91
2023-04-26T03:46:20.471Z,10.96
2023-04-26T03:47:20.536Z,10.72
2023-04-26T03:48:20.514Z,10.87
2023-04-26T03:49:20.584Z,10.95
2023-04-26T03:50:20.620Z,11.06
2023-04-26T03:51:20.633Z,11.02
2023-04-26T03:52:20.679Z,10.87
2023-04-26T03:53:20.744Z,11.00
2023-04-26T03:54:20.773Z,11.15
2023-04-26T03:55:20.783Z,11.07
2023-04-26T03:56:20.839Z,11.07
2023-04-26T03:57:20.821Z,10.95
2023-04-26T03:58:20.808Z,11.06
2023-04-26T03:59:21.267Z,11.16
2023-04-26T04:00:20.883Z,11.26
2023-04-26T04:01:20.893Z,11.34
2023-04-26T04:02:20.937Z,11.41
2023-04-26T04:03:21.172Z,11.51
2023-04-26T04:04:21.181Z,11.61
2023-04-26T04:05:21.835Z,11.64
2023-04-26T04:06:20.966Z,11.71
2023-04-26T04:07:21.017Z,11.76
2023-04-26T04:08:20.957Z,11.82
2023-04-26T04:09:21.018Z,11.87
2023-04-26T04:10:21.276Z,11.91
2023-04-26T04:11:21.075Z,11.95
2023-04-26T04:12:21.118Z,12.02
2023-04-26T04:13:21.111Z,12.04
2023-04-26T04:14:21.185Z,12.05
2023-04-26T04:15:21.161Z,12.06
2023-04-26T04:16:21.315Z,12.08
2023-04-26T04:17:21.211Z,12.09
2023-04-26T04:18:21.269Z,12.09
2023-04-26T04:19:21.376Z,12.09
2023-04-26T04:20:21.478Z,12.12
2023-04-26T04:21:21.502Z,12.15
2023-04-26T04:22:21.570Z,12.18
2023-04-26T04:23:21.599Z,12.12
2023-04-26T04:24:21.624Z,11.98
2023-04-26T04:25:21.664Z,11.89
2023-04-26T04:26:21.673Z,11.97
2023-04-26T04:27:21.683Z,11.81
2023-04-26T04:28:21.708Z,11.95
2023-04-26T04:29:21.769Z,11.88
2023-04-26T04:30:21.817Z,11.82
2023-04-26T04:31:21.862Z,11.74
2023-04-26T04:32:21.825Z,11.73
2023-04-26T04:33:21.896Z,11.73
2023-04-26T04:34:21.959Z,11.56
2023-04-26T04:35:22.339Z,11.61
2023-04-26T04:36:22.127Z,11.66
2023-04-26T04:37:22.030Z,11.77
2023-04-26T04:38:22.064Z,11.89
2023-04-26T04:39:22.086Z,11.98
2023-04-26T04:40:22.167Z,12.02
2023-04-26T04:41:22.197Z,12.09
2023-04-26T04:42:22.249Z,12.14
2023-04-26T04:43:22.264Z,12.18
2023-04-26T04:44:22.364Z,12.24
2023-04-26T04:45:22.452Z,12.29
2023-04-26T04:46:22.458Z,12.36
2023-04-26T04:47:22.543Z,12.42
2023-04-26T04:48:22.565Z,12.48
2023-04-26T04:49:22.577Z,12.53
2023-04-26T04:50:22.570Z,12.56
2023-04-26T04:51:22.560Z,12.56
2023-04-26T04:52:22.582Z,12.55
2023-04-26T04:53:22.589Z,12.57
2023-04-26T04:54:22.660Z,12.43
2023-04-26T04:55:22.693Z,12.48
2023-04-26T04:56:22.732Z,12.22
2023-04-26T04:57:22.771Z,12.24
2023-04-26T04:58:22.737Z,12.29
2023-04-26T04:59:22.794Z,11.94
2023-04-26T05:00:22.770Z,11.88
2023-04-26T05:01:22.800Z,12.02
2023-04-26T05:02:22.926Z,11.99
2023-04-26T05:03:23.025Z,12.01
2023-04-26T05:04:23.150Z,11.89
2023-04-26T05:05:23.329Z,11.99
2023-04-26T05:06:22.988Z,12.08
2023-04-26T05:07:24.531Z,12.06
2023-04-26T05:08:23.085Z,12.15
2023-04-26T05:09:23.155Z,12.31
2023-04-26T05:10:23.215Z,12.33
2023-04-26T05:11:23.194Z,12.38
2023-04-26T05:12:23.269Z,12.48
2023-04-26T05:13:23.336Z,12.48
2023-04-26T05:14:23.300Z,12.55
2023-04-26T05:15:23.376Z,12.59
2023-04-26T05:16:23.412Z,12.60
2023-04-26T05:17:23.429Z,12.60
2023-04-26T05:18:23.501Z,12.73
2023-04-26T05:19:23.492Z,12.75
2023-04-26T05:20:23.519Z,12.84
2023-04-26T05:21:23.528Z,12.45
2023-04-26T05:22:23.567Z,12.52
2023-04-26T05:23:23.566Z,12.72
2023-04-26T05:24:23.632Z,12.69
2023-04-26T05:25:23.662Z,12.76
2023-04-26T05:26:24.341Z,12.72
2023-04-26T05:27:23.803Z,12.75
2023-04-26T05:28:23.749Z,12.69
2023-04-26T05:29:23.799Z,12.82
2023-04-26T05:30:24.420Z,12.83
2023-04-26T05:31:24.050Z,12.69
2023-04-26T05:32:24.062Z,12.82
2023-04-26T05:33:24.058Z,12.84
2023-04-26T05:34:23.928Z,12.94
2023-04-26T05:35:24.301Z,12.99
2023-04-26T05:36:24.028Z,13.10
2023-04-26T05:37:25.009Z,13.15
2023-04-26T05:38:24.054Z,13.21
2023-04-26T05:39:24.015Z,13.27
2023-04-26T05:40:24.953Z,13.35
2023-04-26T05:41:24.265Z,13.42
2023-04-26T05:42:24.135Z,13.42
2023-04-26T05:43:24.199Z,13.52
2023-04-26T05:44:24.235Z,13.58
2023-04-26T05:45:24.817Z,13.61
2023-04-26T05:46:24.266Z,13.61
2023-04-26T05:47:24.175Z,13.66
2023-04-26T05:48:24.194Z,13.71
2023-04-26T05:49:24.289Z,13.76
2023-04-26T05:50:24.920Z,13.79
2023-04-26T05:51:24.352Z,13.81
2023-04-26T05:52:24.413Z,13.88
2023-04-26T05:53:24.423Z,13.93
2023-04-26T05:54:24.398Z,13.95
2023-04-26T05:55:24.465Z,13.99
2023-04-26T05:56:24.487Z,14.05
2023-04-26T05:57:24.473Z,14.12
2023-04-26T05:58:24.530Z,14.16
2023-04-26T05:59:24.534Z,14.23
2023-04-26T06:00:24.606Z,14.30
2023-04-26T06:01:24.684Z,14.36
2023-04-26T06:02:24.837Z,14.44
2023-04-26T06:03:25.069Z,14.54
2023-04-26T06:04:26.149Z,14.47
2023-04-26T06:05:25.093Z,14.54
2023-04-26T06:06:24.968Z,14.57
2023-04-26T06:07:24.966Z,14.66
2023-04-26T06:08:24.969Z,14.66
2023-04-26T06:09:25.214Z,14.66
2023-04-26T06:10:25.428Z,14.78
2023-04-26T06:11:25.030Z,14.75
2023-04-26T06:12:25.037Z,14.74
2023-04-26T06:13:25.107Z,14.75
2023-04-26T06:14:30.553Z,14.81
2023-04-26T06:15:26.460Z,14.85
2023-04-26T06:16:25.219Z,14.83
2023-04-26T06:17:25.099Z,14.90
2023-04-26T06:18:25.820Z,14.99
2023-04-26T06:19:25.179Z,14.95
2023-04-26T06:20:25.082Z,15.02
2023-04-26T06:21:25.046Z,15.05
2023-04-26T06:22:25.102Z,15.11
2023-04-26T06:23:25.075Z,15.08
2023-04-26T06:24:25.049Z,15.12
2023-04-26T06:25:25.330Z,15.15
2023-04-26T06:26:25.086Z,15.22
2023-04-26T06:27:25.034Z,15.19
2023-04-26T06:28:25.134Z,15.24
2023-04-26T06:29:24.999Z,15.28
2023-04-26T06:30:25.331Z,15.33
2023-04-26T06:31:25.025Z,15.38
2023-04-26T06:32:24.985Z,15.41
2023-04-26T06:33:24.964Z,15.41
2023-04-26T06:34:25.025Z,15.43
2023-04-26T06:35:25.104Z,15.46
2023-04-26T06:36:25.105Z,15.39
2023-04-26T06:37:25.232Z,15.36
2023-04-26T06:38:25.109Z,15.35
2023-04-26T06:39:25.188Z,15.39
2023-04-26T06:40:25.267Z,15.42
2023-04-26T06:41:25.814Z,15.43
2023-04-26T06:42:25.331Z,15.50
2023-04-26T06:43:25.470Z,15.55
2023-04-26T06:44:25.363Z,15.62
2023-04-26T06:45:25.410Z,15.62
2023-04-26T06:46:28.455Z,15.67
2023-04-26T06:47:25.442Z,15.72
2023-04-26T06:48:25.400Z,15.73
2023-04-26T06:49:25.580Z,15.84
2023-04-26T06:50:25.401Z,15.98
2023-04-26T06:51:25.410Z,16.06
2023-04-26T06:52:25.460Z,16.00
2023-04-26T06:53:25.404Z,16.00
2023-04-26T06:54:25.413Z,16.00
2023-04-26T06:55:25.888Z,15.92
2023-04-26T06:56:25.432Z,15.92
2023-04-26T06:57:25.387Z,16.00
2023-04-26T06:58:25.401Z,15.92
2023-04-26T06:59:25.358Z,16.01
2023-04-26T07:00:25.982Z,16.14
2023-04-26T07:01:25.434Z,16.24
2023-04-26T07:02:25.600Z,16.28
2023-04-26T07:03:25.446Z,16.44
2023-04-26T07:04:25.469Z,16.50
2023-04-26T07:05:25.396Z,16.54
2023-04-26T07:06:25.312Z,16.61
2023-04-26T07:07:25.356Z,16.68
2023-04-26T07:08:25.325Z,16.65
2023-04-26T07:09:25.287Z,16.66
2023-04-26T07:10:25.322Z,16.58
2023-04-26T07:11:26.343Z,16.61
2023-04-26T07:12:25.309Z,16.66
2023-04-26T07:13:25.271Z,16.34
2023-04-26T07:14:25.245Z,16.25
2023-04-26T07:15:25.249Z,16.31
2023-04-26T07:16:25.284Z,16.34
2023-04-26T07:17:25.250Z,16.47
2023-04-26T07:18:25.258Z,16.59
2023-04-26T07:19:25.221Z,16.41
2023-04-26T07:20:26.884Z,16.32
2023-04-26T07:21:25.209Z,16.55
2023-04-26T07:22:25.192Z,16.64
2023-04-26T07:23:25.245Z,16.78
2023-04-26T07:24:25.229Z,16.90
2023-04-26T07:25:25.181Z,17.03
2023-04-26T07:26:25.168Z,16.99
2023-04-26T07:27:25.179Z,17.16
2023-04-26T07:28:25.195Z,17.22
2023-04-26T07:29:25.166Z,17.27
2023-04-26T07:30:25.477Z,17.10
2023-04-26T07:31:25.151Z,17.27
2023-04-26T07:32:27.895Z,17.30
2023-04-26T07:33:27.944Z,17.37
2023-04-26T07:34:25.897Z,17.39
2023-04-26T07:35:25.881Z,17.51
2023-04-26T07:36:25.257Z,17.56
2023-04-26T07:37:25.144Z,17.67
2023-04-26T07:38:25.167Z,17.70
2023-04-26T07:39:25.090Z,17.66
2023-04-26T07:40:25.119Z,17.78
2023-04-26T07:41:25.182Z,17.85
2023-04-26T07:42:25.156Z,17.94
2023-04-26T07:43:25.059Z,18.04
2023-04-26T07:44:25.219Z,18.05
2023-04-26T07:45:25.081Z,18.02
2023-04-26T07:46:26.010Z,17.88
2023-04-26T07:47:25.070Z,17.99
2023-04-26T07:48:25.071Z,17.50
2023-04-26T07:49:25.026Z,17.80
2023-04-26T07:50:25.039Z,17.85
2023-04-26T07:51:24.997Z,17.76
2023-04-26T07:52:24.974Z,17.84
2023-04-26T07:53:25.000Z,18.01
2023-04-26T07:54:24.970Z,18.07
2023-04-26T07:55:25.088Z,18.09
2023-04-26T07:56:24.953Z,18.11
2023-04-26T07:57:25.091Z,18.01
2023-04-26T07:58:25.034Z,17.99
2023-04-26T07:59:25.016Z,18.21
2023-04-26T08:00:25.836Z,18.08
2023-04-26T08:01:25.285Z,18.16
2023-04-26T08:02:36.794Z,18.28
2023-04-26T08:03:26.176Z,18.31
2023-04-26T08:04:25.129Z,18.35
2023-04-26T08:05:25.341Z,18.42
2023-04-26T08:06:25.060Z,18.52
2023-04-26T08:07:25.069Z,17.88
2023-04-26T08:08:25.885Z,18.12
2023-04-26T08:09:24.887Z,18.13
2023-04-26T08:10:25.889Z,18.29
2023-04-26T08:11:25.996Z,18.36
2023-04-26T08:12:24.890Z,18.46
2023-04-26T08:13:26.979Z,18.53
2023-04-26T08:14:24.954Z,18.60
2023-04-26T08:15:24.860Z,18.25
2023-04-26T08:16:24.885Z,18.32
2023-04-26T08:17:25.019Z,17.49
2023-04-26T08:18:24.845Z,17.95
2023-04-26T08:19:24.879Z,18.12
2023-04-26T08:20:24.835Z,18.27
2023-04-26T08:21:24.802Z,18.39
2023-04-26T08:22:24.828Z,18.56
2023-04-26T08:23:24.787Z,18.42
2023-04-26T08:24:24.813Z,18.64
2023-04-26T08:25:24.784Z,18.66
2023-04-26T08:26:24.773Z,18.70
2023-04-26T08:27:24.794Z,18.72
2023-04-26T08:28:24.779Z,18.80
2023-04-26T08:29:24.746Z,18.76
2023-04-26T08:30:25.013Z,18.91
2023-04-26T08:31:24.751Z,19.01
2023-04-26T08:32:24.764Z,19.13
2023-04-26T08:33:24.701Z,19.18
2023-04-26T08:34:24.733Z,19.30
2023-04-26T08:35:24.680Z,19.41
2023-04-26T08:36:24.729Z,19.31
2023-04-26T08:37:24.696Z,19.14
2023-04-26T08:38:24.746Z,19.30
2023-04-26T08:39:24.717Z,19.44
2023-04-26T08:40:24.809Z,19.54
2023-04-26T08:41:26.413Z,19.61
2023-04-26T08:42:24.638Z,19.60
2023-04-26T08:43:24.661Z,19.65
2023-04-26T08:44:25.352Z,19.78
2023-04-26T08:45:24.848Z,19.82
2023-04-26T08:46:24.690Z,19.88
2023-04-26T08:47:24.689Z,19.95
2023-04-26T08:48:24.633Z,19.78
2023-04-26T08:49:25.452Z,19.72
2023-04-26T08:50:25.440Z,19.85
2023-04-26T08:51:24.643Z,19.39
2023-04-26T08:52:25.442Z,19.03
2023-04-26T08:53:25.359Z,19.37
2023-04-26T08:54:24.564Z,19.52
2023-04-26T08:55:24.605Z,19.62
2023-04-26T08:56:24.546Z,19.79
2023-04-26T08:57:24.559Z,19.81
2023-04-26T08:58:24.578Z,19.91
2023-04-26T08:59:24.780Z,19.93
2023-04-26T09:00:27.901Z,19.64
2023-04-26T09:01:24.666Z,19.20
2023-04-26T09:02:24.808Z,19.13
2023-04-26T09:03:25.542Z,19.50
2023-04-26T09:04:25.596Z,19.62
2023-04-26T09:05:25.378Z,19.34
2023-04-26T09:06:24.574Z,18.89
2023-04-26T09:07:24.797Z,18.83
2023-04-26T09:08:25.334Z,18.79
2023-04-26T09:09:24.603Z,18.72
2023-04-26T09:10:24.658Z,18.87
2023-04-26T09:11:24.930Z,19.18
2023-04-26T09:12:25.352Z,19.44
2023-04-26T09:13:24.554Z,19.65
2023-04-26T09:14:25.238Z,19.72
2023-04-26T09:15:24.610Z,19.85
2023-04-26T09:16:24.707Z,20.06
2023-04-26T09:17:24.724Z,20.22
2023-04-26T09:18:24.518Z,20.30
2023-04-26T09:19:24.508Z,20.47
2023-04-26T09:20:24.500Z,20.57
2023-04-26T09:21:24.488Z,20.50
2023-04-26T09:22:24.467Z,20.67
2023-04-26T09:23:24.487Z,20.67
2023-04-26T09:24:24.448Z,20.81
2023-04-26T09:25:24.549Z,20.85
2023-04-26T09:26:24.540Z,20.99
2023-04-26T09:27:24.514Z,20.93
2023-04-26T09:28:24.538Z,20.94
2023-04-26T09:29:24.441Z,20.97
2023-04-26T09:30:24.537Z,21.11
2023-04-26T09:31:25.139Z,21.18
2023-04-26T09:32:25.478Z,21.26
2023-04-26T09:33:24.759Z,21.28
2023-04-26T09:34:24.507Z,21.08
2023-04-26T09:35:24.407Z,20.71
2023-04-26T09:36:24.875Z,20.68
2023-04-26T09:37:24.432Z,20.78
2023-04-26T09:38:24.357Z,20.77
2023-04-26T09:39:25.389Z,20.54
2023-04-26T09:40:24.455Z,20.75
2023-04-26T09:41:25.380Z,20.68
2023-04-26T09:42:24.470Z,20.84
2023-04-26T09:43:24.596Z,20.51
2023-04-26T09:44:24.620Z,20.51
2023-04-26T09:45:24.782Z,20.67
2023-04-26T09:46:25.507Z,20.80
2023-04-26T09:47:24.673Z,20.78
2023-04-26T09:48:24.683Z,20.81
2023-04-26T09:49:24.812Z,21.15
2023-04-26T09:50:24.783Z,21.12
2023-04-26T09:51:25.077Z,21.01
2023-04-26T09:52:25.383Z,21.24
2023-04-26T09:53:24.809Z,21.41
2023-04-26T09:54:25.403Z,21.44
2023-04-26T09:55:34.190Z,21.65
2023-04-26T09:56:25.864Z,21.70
2023-04-26T09:57:25.055Z,21.53
2023-04-26T09:58:24.863Z,21.73
2023-04-26T09:59:24.946Z,21.11
2023-04-26T10:00:25.385Z,20.88
2023-04-26T10:01:24.847Z,20.44
2023-04-26T10:02:24.970Z,20.15
2023-04-26T10:03:24.982Z,20.32
2023-04-26T10:04:24.873Z,20.13
2023-04-26T10:05:24.798Z,20.23
2023-04-26T10:06:24.772Z,20.47
2023-04-26T10:07:25.378Z,20.66
2023-04-26T10:08:24.746Z,20.87
2023-04-26T10:09:24.825Z,20.81
2023-04-26T10:10:24.792Z,20.74
2023-04-26T10:11:24.821Z,20.42
2023-04-26T10:12:24.833Z,20.30
2023-04-26T10:13:24.814Z,20.08
2023-04-26T10:14:24.834Z,19.52
2023-04-26T10:15:24.879Z,19.93
2023-04-26T10:16:24.950Z,19.99
2023-04-26T10:17:24.934Z,20.40
2023-04-26T10:18:24.863Z,20.62
2023-04-26T10:19:24.909Z,20.29
2023-04-26T10:20:24.937Z,20.70
2023-04-26T10:21:25.008Z,20.90
2023-04-26T10:22:25.309Z,20.42
2023-04-26T10:23:25.047Z,20.97
2023-04-26T10:24:25.136Z,21.08
2023-04-26T10:25:25.177Z,21.42
2023-04-26T10:26:25.177Z,21.66
2023-04-26T10:27:25.368Z,21.48
2023-04-26T10:28:25.218Z,21.63
2023-04-26T10:29:25.255Z,21.89
2023-04-26T10:30:25.334Z,22.01
2023-04-26T10:31:25.873Z,21.86
2023-04-26T10:32:25.409Z,22.03
2023-04-26T10:33:25.475Z,22.27
2023-04-26T10:34:25.505Z,21.83
2023-04-26T10:35:25.531Z,21.59
2023-04-26T10:36:25.889Z,21.48
2023-04-26T10:37:25.629Z,21.26
2023-04-26T10:38:25.613Z,21.62
2023-04-26T10:39:25.658Z,21.63
2023-04-26T10:40:25.678Z,21.38
2023-04-26T10:41:25.880Z,21.53
2023-04-26T10:42:26.552Z,21.32
2023-04-26T10:43:26.208Z,21.63
2023-04-26T10:44:25.831Z,21.93
2023-04-26T10:45:25.869Z,22.20
2023-04-26T10:46:25.984Z,22.14
2023-04-26T10:47:25.927Z,22.33
2023-04-26T10:48:25.904Z,22.37
2023-04-26T10:49:26.802Z,22.13
2023-04-26T10:50:25.938Z,21.97
2023-04-26T10:51:25.985Z,21.95
2023-04-26T10:52:25.989Z,22.00
2023-04-26T10:53:26.044Z,21.99
2023-04-26T10:54:26.216Z,21.62
2023-04-26T10:55:26.149Z,21.86
2023-04-26T10:56:26.288Z,21.93
2023-04-26T10:57:26.225Z,22.10
2023-04-26T10:58:26.255Z,22.40
2023-04-26T11:00:27.095Z,22.88
2023-04-26T11:01:26.365Z,23.13
2023-04-26T11:02:26.398Z,23.22
2023-04-26T11:03:26.346Z,23.19
2023-04-26T11:04:26.990Z,23.54
2023-04-26T11:05:26.228Z,23.05
2023-04-26T11:06:26.448Z,23.33
2023-04-26T11:07:26.205Z,23.30
2023-04-26T11:08:26.238Z,23.01
2023-04-26T11:09:26.271Z,23.29
2023-04-26T11:10:26.421Z,22.79
2023-04-26T11:11:26.281Z,22.30
2023-04-26T11:12:26.287Z,22.25
2023-04-26T11:13:26.315Z,22.20
2023-04-26T11:14:26.347Z,21.93
2023-04-26T11:15:26.416Z,22.00
2023-04-26T11:16:26.793Z,22.31
2023-04-26T11:17:26.572Z,22.62
2023-04-26T11:18:26.614Z,22.78
2023-04-26T11:19:26.600Z,22.08
2023-04-26T11:20:26.648Z,22.30
2023-04-26T11:21:27.551Z,22.48
2023-04-26T11:22:26.739Z,22.87
2023-04-26T11:23:26.764Z,23.18
2023-04-26T11:24:27.418Z,23.46
2023-04-26T11:25:26.814Z,23.34
2023-04-26T11:26:26.881Z,23.27
2023-04-26T11:27:26.889Z,23.15
2023-04-26T11:28:26.910Z,22.75
2023-04-26T11:29:26.923Z,22.79
2023-04-26T11:30:26.960Z,22.95
2023-04-26T11:31:27.516Z,22.76
2023-04-26T11:32:27.102Z,21.97
2023-04-26T11:33:27.199Z,22.11
2023-04-26T11:34:27.128Z,22.06
2023-04-26T11:35:27.242Z,21.82
2023-04-26T11:36:27.415Z,22.16
2023-04-26T11:37:27.241Z,22.41
2023-04-26T11:38:27.292Z,22.55
2023-04-26T11:39:27.309Z,22.38
2023-04-26T11:40:27.341Z,22.50
2023-04-26T11:41:27.417Z,22.31
2023-04-26T11:42:27.389Z,22.16
2023-04-26T11:43:27.417Z,22.25
2023-04-26T11:44:27.502Z,22.85
2023-04-26T11:45:27.506Z,22.89
2023-04-26T11:46:27.628Z,23.32
2023-04-26T11:47:27.531Z,23.15
2023-04-26T11:48:27.583Z,23.57
2023-04-26T11:49:27.614Z,24.01
2023-04-26T11:50:27.670Z,24.28
2023-04-26T11:51:27.643Z,24.55
2023-04-26T11:52:27.708Z,24.41
2023-04-26T11:53:27.750Z,24.62
2023-04-26T11:54:27.760Z,24.82
2023-04-26T11:55:27.816Z,25.03
2023-04-26T11:56:27.866Z,25.12
2023-04-26T11:57:27.860Z,25.29
2023-04-26T11:58:27.890Z,25.41
2023-04-26T11:59:27.909Z,25.60
2023-04-26T12:00:27.966Z,25.78
2023-04-26T12:01:28.066Z,25.64
2023-04-26T12:02:28.147Z,25.82
2023-04-26T12:03:28.371Z,25.22
2023-04-26T12:04:29.951Z,25.13
2023-04-26T12:05:28.272Z,24.96
2023-04-26T12:06:28.221Z,24.63
2023-04-26T12:07:28.209Z,24.55
2023-04-26T12:08:28.315Z,24.79
2023-04-26T12:09:28.362Z,24.62
2023-04-26T12:10:28.388Z,24.72
2023-04-26T12:11:28.412Z,25.16
2023-04-26T12:12:28.462Z,25.29
2023-04-26T12:13:28.460Z,25.41
2023-04-26T12:14:28.532Z,25.44
2023-04-26T12:15:28.494Z,25.41
2023-04-26T12:16:28.571Z,25.41
2023-04-26T12:17:28.813Z,25.68
2023-04-26T12:18:28.542Z,25.94
2023-04-26T12:19:28.613Z,25.81
2023-04-26T12:20:28.641Z,25.75
2023-04-26T12:21:30.611Z,25.88
2023-04-26T12:22:28.770Z,25.81
2023-04-26T12:23:28.794Z,25.38
2023-04-26T12:24:28.838Z,25.50
2023-04-26T12:25:28.855Z,25.58
2023-04-26T12:26:28.896Z,25.72
2023-04-26T12:27:28.915Z,25.87
2023-04-26T12:28:29.081Z,25.60
2023-04-26T12:29:29.235Z,25.55
2023-04-26T12:30:29.018Z,25.45
2023-04-26T12:31:29.095Z,25.58
2023-04-26T12:32:29.114Z,25.77
2023-04-26T12:33:29.139Z,25.12
2023-04-26T12:34:30.043Z,25.05
2023-04-26T12:35:29.138Z,25.26
2023-04-26T12:36:29.134Z,24.52
2023-04-26T12:37:29.149Z,23.67
2023-04-26T12:38:29.488Z,23.22
2023-04-26T12:39:29.300Z,23.70
2023-04-26T12:40:29.926Z,24.00
2023-04-26T12:41:29.581Z,24.22
2023-04-26T12:42:29.506Z,23.97
2023-04-26T12:43:29.525Z,23.71
2023-04-26T12:44:29.436Z,23.87
2023-04-26T12:45:29.482Z,23.96
2023-04-26T12:46:29.573Z,24.04
2023-04-26T12:47:29.603Z,24.07
2023-04-26T12:48:29.562Z,24.01
2023-04-26T12:49:29.589Z,24.34
2023-04-26T12:50:29.654Z,24.55
2023-04-26T12:51:29.981Z,24.86
2023-04-26T12:52:29.701Z,24.42
2023-04-26T12:53:29.714Z,24.93